Time;durP1;ratioP1;P1;durP2;ratioP2;P2;SDS_P1;SDS_P2;PMS_P1;PMS_P2;Temp;Humidity;BMP_temperature;BMP_pressure;BME280_temperature;BME280_humidity;BME280_pressure;Samples;Min_cycle;Max_cycle;Signal;HPM_P1;HPM_P2
2021/12/07 00:02:12;;;;;;;20.38;15.48;;;5.90;99.40;;;;;;5108167;28;20219;-66
2021/12/07 00:04:40;;;;;;;21.00;16.77;;;5.90;99.40;;;;;;5105049;28;20549;-64
2021/12/07 00:07:08;;;;;;;21.77;16.13;;;5.90;99.30;;;;;;5101225;27;20230;-64
2021/12/07 00:09:36;;;;;;;24.65;19.08;;;5.90;99.20;;;;;;5113103;27;20564;-64
2021/12/07 00:12:04;;;;;;;23.33;17.95;;;5.80;99.20;;;;;;5114656;27;20229;-65
2021/12/07 00:14:39;;;;;;;23.80;17.90;;;5.80;99.30;;;;;;5115587;28;20218;-65
2021/12/07 00:17:06;;;;;;;23.38;18.10;;;5.80;99.40;;;;;;5100630;27;20218;-64
2021/12/07 00:19:35;;;;;;;26.58;19.73;;;5.70;99.40;;;;;;5110050;28;20276;-64
2021/12/07 00:22:04;;;;;;;23.25;18.35;;;5.60;99.60;;;;;;5108182;28;20227;-65
2021/12/07 00:24:30;;;;;;;22.88;18.95;;;5.60;99.80;;;;;;5109134;27;20229;-64
2021/12/07 00:26:58;;;;;;;21.83;17.90;;;5.60;99.90;;;;;;5103797;28;20218;-64
2021/12/07 00:29:25;;;;;;;27.63;19.45;;;5.50;99.90;;;;;;5107087;27;20233;-64
2021/12/07 00:32:08;;;;;;;19.58;16.10;;;5.40;99.80;;;;;;5111738;27;20211;-64
2021/12/07 00:34:56;;;;;;;20.50;16.67;;;5.40;99.90;;;;;;5109235;28;20211;-64
2021/12/07 00:37:24;;;;;;;22.98;17.10;;;5.40;99.90;;;;;;5109704;27;20249;-64
2021/12/07 00:39:52;;;;;;;25.75;17.25;;;5.40;99.90;;;;;;5115009;27;20238;-64
2021/12/07 00:42:19;;;;;;;20.75;15.82;;;5.30;99.90;;;;;;5115729;27;20222;-64
2021/12/07 00:44:46;;;;;;;22.02;16.50;;;5.30;99.90;;;;;;5114744;28;20661;-64
2021/12/07 00:47:14;;;;;;;22.88;17.67;;;5.20;99.90;;;;;;5115406;28;20230;-64
2021/12/07 00:49:42;;;;;;;22.90;16.20;;;5.20;99.90;;;;;;5101689;28;20223;-64
2021/12/07 00:52:09;;;;;;;20.55;16.88;;;5.10;99.90;;;;;;5114809;27;20238;-65
2021/12/07 00:54:37;;;;;;;24.17;15.50;;;4.90;99.90;;;;;;5102690;28;20234;-64
2021/12/07 00:57:04;;;;;;;20.20;15.85;;;4.90;99.90;;;;;;5101871;27;20239;-64
2021/12/07 00:59:32;;;;;;;23.25;18.33;;;4.90;99.90;;;;;;5106404;27;20250;-64
2021/12/07 01:02:04;;;;;;;21.17;15.73;;;4.90;99.90;;;;;;5108647;28;20229;-64
2021/12/07 01:04:35;;;;;;;21.73;15.93;;;4.90;99.90;;;;;;5103997;27;20223;-64
2021/12/07 01:07:06;;;;;;;22.15;16.58;;;4.90;99.90;;;;;;5101849;28;20247;-64
2021/12/07 01:09:41;;;;;;;21.00;15.88;;;4.80;99.90;;;;;;5114008;27;20560;-64
2021/12/07 01:26:06;;;;;;;20.80;14.82;;;4.60;99.90;;;;;;5106376;28;20619;-64
2021/12/07 01:28:37;;;;;;;19.63;15.57;;;4.70;99.90;;;;;;5101849;28;20226;-64
2021/12/07 01:31:14;;;;;;;18.98;14.13;;;4.60;99.90;;;;;;5109302;28;20245;-64
2021/12/07 01:34:00;;;;;;;21.33;15.43;;;4.50;99.90;;;;;;5105908;28;20230;-64
2021/12/07 01:39:50;;;;;;;18.58;15.15;;;4.40;99.90;;;;;;5111060;27;20680;-64
2021/12/07 01:47:53;;;;;;;20.60;15.68;;;4.20;99.90;;;;;;5109604;28;20206;-64
2021/12/07 01:50:40;;;;;;;18.33;14.95;;;4.20;99.90;;;;;;5101274;28;20266;-64
2021/12/07 01:57:47;;;;;;;17.73;13.20;;;4.10;99.90;;;;;;5102580;28;20218;-65
2021/12/07 02:01:28;;;;;;;18.40;13.55;;;4.10;99.90;;;;;;5104548;28;20237;-65
2021/12/07 02:03:55;;;;;;;17.52;14.25;;;4.20;99.90;;;;;;5100393;28;20226;-65
2021/12/07 02:06:22;;;;;;;16.90;14.27;;;4.20;99.90;;;;;;5101933;28;20255;-65
2021/12/07 02:08:51;;;;;;;17.73;13.45;;;4.20;99.90;;;;;;5107025;28;20242;-65
2021/12/07 02:11:18;;;;;;;17.75;13.45;;;4.20;99.90;;;;;;5105288;28;20330;-65
2021/12/07 02:14:16;;;;;;;17.55;12.60;;;4.30;99.90;;;;;;5108462;27;20226;-65
2021/12/07 02:16:43;;;;;;;17.35;12.88;;;4.30;99.90;;;;;;5107538;27;20585;-65
2021/12/07 02:19:10;;;;;;;17.13;12.27;;;4.20;99.90;;;;;;5112475;27;20935;-65
2021/12/07 02:21:38;;;;;;;15.82;14.10;;;4.20;99.90;;;;;;5111803;27;20565;-65
2021/12/07 02:24:06;;;;;;;15.63;13.13;;;4.20;99.90;;;;;;5111874;27;22666;-64
2021/12/07 02:26:33;;;;;;;15.25;13.30;;;4.20;99.90;;;;;;5113988;27;20688;-65
2021/12/07 02:29:00;;;;;;;18.95;14.40;;;4.20;99.90;;;;;;5113148;27;20223;-65
2021/12/07 02:31:28;;;;;;;18.17;13.15;;;4.30;99.90;;;;;;5114060;27;20246;-65
2021/12/07 02:33:55;;;;;;;17.23;13.15;;;4.30;99.90;;;;;;5113709;27;20231;-65
2021/12/07 02:36:22;;;;;;;17.63;13.95;;;4.20;99.80;;;;;;5112683;27;20291;-65
2021/12/07 02:38:51;;;;;;;19.83;13.90;;;4.20;99.90;;;;;;5093070;28;20242;-65
2021/12/07 02:41:19;;;;;;;18.65;13.75;;;4.20;99.90;;;;;;5099313;28;20226;-64
2021/12/07 02:43:46;;;;;;;17.33;11.98;;;4.20;99.90;;;;;;5113949;28;20226;-65
2021/12/07 02:46:13;;;;;;;17.55;14.00;;;4.10;99.70;;;;;;5113306;27;20230;-65
2021/12/07 02:48:41;;;;;;;16.67;12.52;;;4.10;99.80;;;;;;5113670;27;20218;-65
2021/12/07 02:51:08;;;;;;;17.23;13.27;;;4.10;99.80;;;;;;5112991;27;20241;-65
2021/12/07 02:53:37;;;;;;;16.52;12.18;;;4.10;99.90;;;;;;5113621;27;20222;-65
2021/12/07 02:56:07;;;;;;;17.95;14.35;;;4.10;99.90;;;;;;5112998;27;20272;-65
2021/12/07 02:58:36;;;;;;;18.40;13.35;;;4.10;99.90;;;;;;5113600;27;20222;-65
2021/12/07 03:01:10;;;;;;;20.70;13.48;;;4.10;99.80;;;;;;5113074;27;20233;-65
2021/12/07 03:03:48;;;;;;;16.05;13.18;;;4.00;99.80;;;;;;5113524;27;20241;-65
2021/12/07 03:06:21;;;;;;;14.93;12.20;;;4.00;99.90;;;;;;5113214;27;20233;-65
2021/12/07 03:09:19;;;;;;;19.50;14.40;;;4.00;99.90;;;;;;5113291;27;20223;-65
2021/12/07 03:28:16;;;;;;;20.23;16.48;;;3.90;99.90;;;;;;5113101;27;20229;-65
2021/12/07 03:30:43;;;;;;;20.15;14.63;;;3.80;99.90;;;;;;5112743;27;20230;-65
2021/12/07 03:33:10;;;;;;;21.90;16.30;;;3.70;99.90;;;;;;5112698;27;20226;-65
2021/12/07 03:35:38;;;;;;;22.85;17.92;;;3.70;99.90;;;;;;5112496;27;20218;-65
2021/12/07 03:38:06;;;;;;;22.52;15.73;;;3.60;99.90;;;;;;5113010;28;20234;-65
2021/12/07 03:40:33;;;;;;;17.45;15.45;;;3.60;99.90;;;;;;5112659;28;20235;-65
2021/12/07 03:43:01;;;;;;;20.65;16.70;;;3.60;99.90;;;;;;5113003;27;20222;-65
2021/12/07 03:45:31;;;;;;;22.10;15.70;;;3.60;99.90;;;;;;5112380;27;20222;-64
2021/12/07 03:47:58;;;;;;;20.75;15.70;;;3.60;99.90;;;;;;5113050;27;20256;-64
2021/12/07 03:50:26;;;;;;;23.15;15.60;;;3.60;99.90;;;;;;5112390;27;20233;-65
2021/12/07 03:52:54;;;;;;;21.77;16.55;;;3.70;99.90;;;;;;5113220;27;20223;-65
2021/12/07 03:55:22;;;;;;;17.77;14.65;;;3.70;99.90;;;;;;5112644;27;20590;-65
2021/12/07 03:57:49;;;;;;;20.05;15.80;;;3.70;99.90;;;;;;5112861;27;20246;-66
2021/12/07 04:00:19;;;;;;;20.25;15.23;;;3.70;99.90;;;;;;5112591;27;20234;-65
2021/12/07 04:02:50;;;;;;;21.75;16.77;;;3.70;99.90;;;;;;5112323;27;20238;-65
2021/12/07 04:05:18;;;;;;;21.55;16.90;;;3.70;99.90;;;;;;5112454;27;20222;-65
2021/12/07 04:07:47;;;;;;;24.90;18.02;;;3.60;99.90;;;;;;5112094;27;20666;-65
2021/12/07 04:10:16;;;;;;;24.23;17.23;;;3.60;99.90;;;;;;5112679;27;20231;-65
2021/12/07 04:12:44;;;;;;;25.10;18.55;;;3.60;99.90;;;;;;5112247;27;20229;-65
2021/12/07 04:15:13;;;;;;;23.60;18.10;;;3.50;99.90;;;;;;5112890;27;20226;-65
2021/12/07 04:17:40;;;;;;;24.55;18.38;;;3.40;99.90;;;;;;5112237;27;20214;-65
2021/12/07 04:20:12;;;;;;;22.83;17.55;;;3.40;99.90;;;;;;5112650;27;20700;-65
2021/12/07 04:22:39;;;;;;;26.10;18.65;;;3.40;99.90;;;;;;5112307;27;20283;-65
2021/12/07 04:25:09;;;;;;;23.23;16.60;;;3.40;99.90;;;;;;5112591;27;20223;-65
2021/12/07 04:27:38;;;;;;;19.00;16.92;;;3.40;99.90;;;;;;5112210;27;20227;-65
2021/12/07 04:30:08;;;;;;;25.20;17.27;;;3.40;99.90;;;;;;5112526;27;20222;-65
2021/12/07 04:32:36;;;;;;;25.63;18.10;;;3.40;99.90;;;;;;5112368;27;20233;-65
2021/12/07 04:35:04;;;;;;;25.77;18.35;;;3.40;99.90;;;;;;5112406;27;20226;-65
2021/12/07 04:37:32;;;;;;;25.85;19.00;;;3.30;99.90;;;;;;5112142;28;20238;-65
2021/12/07 04:39:59;;;;;;;24.88;17.85;;;3.40;99.90;;;;;;5112459;28;20227;-65
2021/12/07 04:42:26;;;;;;;25.98;19.02;;;3.30;99.90;;;;;;5111960;27;20226;-65
2021/12/07 04:44:58;;;;;;;25.38;18.38;;;3.30;99.90;;;;;;5113349;27;20219;-65
2021/12/07 04:47:34;;;;;;;25.38;19.25;;;3.30;99.90;;;;;;5115743;27;20222;-65
2021/12/07 04:58:26;;;;;;;27.85;19.48;;;3.10;99.90;;;;;;5131052;27;20241;-64
2021/12/07 05:00:53;;;;;;;26.23;20.05;;;3.10;99.90;;;;;;5146825;27;20666;-64
2021/12/07 05:03:20;;;;;;;28.25;17.35;;;3.10;99.90;;;;;;5151456;27;20225;-64
2021/12/07 05:05:51;;;;;;;24.60;18.38;;;3.20;99.90;;;;;;5150991;27;20249;-64
2021/12/07 05:08:32;;;;;;;29.20;19.50;;;3.20;99.90;;;;;;5151524;27;20289;-64
2021/12/07 05:11:26;;;;;;;26.05;18.55;;;3.20;99.90;;;;;;5151099;27;20748;-64
2021/12/07 05:13:59;;;;;;;25.05;19.40;;;3.20;99.90;;;;;;5150960;27;20217;-65
2021/12/07 05:16:48;;;;;;;25.70;20.35;;;3.30;99.90;;;;;;5151267;27;20274;-64
2021/12/07 05:23:54;;;;;;;25.95;20.42;;;3.40;99.90;;;;;;5151420;27;20221;-65
2021/12/07 05:25:14;;;;;;;24.33;20.90;;;3.50;99.90;;;;;;5151112;27;20713;-64
2021/12/07 05:38:38;;;;;;;29.92;19.67;;;3.50;99.90;;;;;;5150986;27;20224;-64
2021/12/07 05:41:08;;;;;;;24.85;18.90;;;3.50;99.90;;;;;;5150312;27;20241;-63
2021/12/07 05:43:36;;;;;;;24.13;18.88;;;3.50;99.90;;;;;;5150787;27;20213;-64
2021/12/07 05:46:04;;;;;;;26.30;19.38;;;3.50;99.90;;;;;;5150345;27;20691;-64
2021/12/07 05:48:31;;;;;;;28.38;20.73;;;3.50;99.90;;;;;;5150655;27;20213;-66
2021/12/07 05:50:59;;;;;;;26.50;21.27;;;3.50;99.90;;;;;;5150063;27;20566;-64
2021/12/07 05:53:26;;;;;;;29.50;21.20;;;3.50;99.90;;;;;;5150637;27;20213;-63
2021/12/07 05:55:53;;;;;;;27.58;19.30;;;3.50;99.90;;;;;;5150147;27;20532;-64
2021/12/07 05:58:22;;;;;;;28.05;19.85;;;3.60;99.90;;;;;;5150451;27;20213;-64
2021/12/07 06:00:51;;;;;;;25.90;21.30;;;3.60;99.90;;;;;;5149940;27;20236;-64
2021/12/07 06:03:18;;;;;;;27.67;21.05;;;3.70;99.90;;;;;;5142289;27;20221;-64
2021/12/07 06:05:45;;;;;;;27.40;21.10;;;3.70;99.90;;;;;;5136505;27;20222;-64
2021/12/07 06:08:12;;;;;;;31.65;22.08;;;3.70;99.90;;;;;;5136199;27;20224;-64
2021/12/07 06:10:39;;;;;;;26.70;21.13;;;3.70;99.90;;;;;;5136665;27;20233;-64
2021/12/07 06:13:06;;;;;;;29.55;22.20;;;3.70;99.90;;;;;;5135974;27;20232;-64
2021/12/07 06:15:38;;;;;;;32.47;22.52;;;3.70;99.90;;;;;;5136214;27;20218;-64
2021/12/07 06:18:06;;;;;;;28.83;20.17;;;3.70;99.90;;;;;;5135887;27;20310;-65
2021/12/07 06:20:33;;;;;;;29.73;20.58;;;3.70;99.90;;;;;;5136057;27;20536;-65
2021/12/07 06:23:00;;;;;;;30.58;22.45;;;3.70;99.90;;;;;;5135764;27;20233;-65
2021/12/07 06:25:28;;;;;;;29.52;22.27;;;3.70;99.90;;;;;;5136237;27;20233;-65
2021/12/07 06:27:56;;;;;;;32.47;24.67;;;3.70;99.90;;;;;;5135500;27;20221;-66
2021/12/07 06:30:22;;;;;;;29.63;21.25;;;3.60;99.90;;;;;;5135974;27;20303;-65
2021/12/07 06:32:51;;;;;;;26.27;21.23;;;3.60;99.90;;;;;;5135797;27;20222;-66
2021/12/07 06:35:18;;;;;;;29.13;22.92;;;3.60;99.90;;;;;;5135766;27;20229;-64
2021/12/07 06:37:45;;;;;;;27.35;20.75;;;3.60;99.90;;;;;;5135733;27;20222;-64
2021/12/07 06:40:13;;;;;;;31.38;22.02;;;3.60;99.90;;;;;;5135731;27;20245;-64
2021/12/07 06:42:40;;;;;;;30.30;20.90;;;3.50;99.90;;;;;;5135703;27;20230;-64
2021/12/07 06:45:08;;;;;;;32.20;22.67;;;3.60;99.90;;;;;;5135244;27;20214;-65
2021/12/07 06:47:35;;;;;;;34.00;23.33;;;3.50;99.90;;;;;;5135942;27;20214;-65
2021/12/07 06:50:05;;;;;;;31.67;22.95;;;3.50;99.90;;;;;;5135062;27;20229;-65
2021/12/07 06:52:32;;;;;;;29.23;21.60;;;3.50;99.90;;;;;;5135225;27;20222;-65
2021/12/07 06:54:59;;;;;;;30.15;23.25;;;3.50;99.90;;;;;;5135156;27;20237;-65
2021/12/07 06:57:26;;;;;;;32.38;24.30;;;3.40;99.90;;;;;;5135708;27;20218;-65
2021/12/07 06:59:53;;;;;;;33.95;22.83;;;3.50;99.90;;;;;;5135118;27;20226;-65
2021/12/07 07:02:21;;;;;;;27.60;21.05;;;3.40;99.90;;;;;;5135456;27;20225;-64
2021/12/07 07:04:48;;;;;;;34.35;25.52;;;3.50;99.90;;;;;;5135223;27;20235;-65
2021/12/07 07:07:18;;;;;;;35.03;26.70;;;3.40;99.90;;;;;;5134853;27;20218;-65
2021/12/07 07:09:45;;;;;;;33.83;24.05;;;3.40;99.90;;;;;;5135319;27;20243;-64
2021/12/07 07:12:12;;;;;;;34.13;22.52;;;3.40;99.90;;;;;;5134443;27;20233;-65
2021/12/07 07:14:39;;;;;;;34.75;24.95;;;3.40;99.90;;;;;;5134274;27;20563;-66
2021/12/07 07:17:06;;;;;;;38.20;24.58;;;3.40;99.90;;;;;;5134812;27;20226;-64
2021/12/07 07:19:33;;;;;;;36.05;24.40;;;3.40;99.90;;;;;;5114286;27;20219;-65
2021/12/07 07:22:02;;;;;;;27.63;21.27;;;3.40;99.90;;;;;;5114123;27;20575;-64
2021/12/07 07:24:31;;;;;;;32.90;24.65;;;3.40;99.90;;;;;;5114353;27;20661;-64
2021/12/07 07:26:59;;;;;;;35.35;25.92;;;3.40;99.90;;;;;;5113990;27;20238;-65
2021/12/07 07:29:26;;;;;;;32.40;22.88;;;3.40;99.90;;;;;;5114267;27;20256;-65
2021/12/07 07:31:54;;;;;;;39.08;25.70;;;3.40;99.90;;;;;;5113942;27;20476;-65
2021/12/07 07:34:21;;;;;;;33.78;25.35;;;3.30;99.90;;;;;;5126471;27;20537;-65
2021/12/07 07:36:47;;;;;;;34.75;24.98;;;3.20;99.90;;;;;;5134730;27;20683;-65
2021/12/07 07:39:15;;;;;;;33.53;24.90;;;3.20;99.90;;;;;;5134193;27;20230;-65
2021/12/07 07:41:43;;;;;;;32.63;23.73;;;3.10;99.90;;;;;;5134466;27;20210;-65
2021/12/07 07:44:10;;;;;;;34.65;24.70;;;3.10;99.90;;;;;;5133999;27;20233;-64
2021/12/07 07:46:37;;;;;;;33.65;24.83;;;3.00;99.90;;;;;;5134621;27;20240;-64
2021/12/07 07:49:04;;;;;;;34.83;24.55;;;3.10;99.90;;;;;;5133885;27;20640;-64
2021/12/07 07:51:32;;;;;;;36.17;25.25;;;3.10;99.90;;;;;;5134243;27;20256;-64
2021/12/07 07:53:59;;;;;;;38.25;23.55;;;3.10;99.90;;;;;;5133963;27;20249;-64
2021/12/07 07:56:27;;;;;;;35.80;23.17;;;3.20;99.90;;;;;;5134451;27;20229;-65
2021/12/07 07:58:55;;;;;;;32.35;22.63;;;3.10;99.90;;;;;;5134377;27;20571;-64
2021/12/07 08:01:24;;;;;;;26.02;20.83;;;3.20;99.90;;;;;;5134015;27;20225;-64
2021/12/07 08:03:51;;;;;;;32.50;24.42;;;3.20;99.90;;;;;;5134197;27;20688;-64
2021/12/07 08:06:18;;;;;;;33.28;21.92;;;3.30;99.90;;;;;;5133715;27;20280;-64
2021/12/07 08:08:45;;;;;;;33.30;20.63;;;3.20;99.90;;;;;;5134192;27;20230;-64
2021/12/07 08:11:13;;;;;;;32.55;24.13;;;3.20;99.90;;;;;;5133575;27;20237;-65
2021/12/07 08:13:40;;;;;;;34.38;25.50;;;3.30;99.90;;;;;;5134099;27;20229;-64
2021/12/07 08:16:15;;;;;;;32.38;22.58;;;3.30;99.90;;;;;;5133677;27;20249;-64
2021/12/07 08:18:43;;;;;;;33.28;24.35;;;3.30;99.90;;;;;;5133714;27;20217;-65
2021/12/07 08:21:10;;;;;;;36.28;24.55;;;3.30;99.90;;;;;;5133439;27;20249;-64
2021/12/07 08:23:37;;;;;;;28.67;22.27;;;3.30;99.90;;;;;;5133857;27;20660;-64
2021/12/07 08:26:05;;;;;;;29.23;21.05;;;3.30;99.90;;;;;;5133154;27;20246;-64
2021/12/07 08:28:32;;;;;;;33.45;25.33;;;3.30;99.90;;;;;;5133863;27;20241;-65
2021/12/07 08:30:59;;;;;;;30.35;22.10;;;3.30;99.90;;;;;;5133700;27;20234;-65
2021/12/07 08:33:28;;;;;;;25.10;20.92;;;3.30;99.90;;;;;;5133356;27;20728;-65
2021/12/07 08:35:55;;;;;;;30.63;20.83;;;3.20;99.90;;;;;;5133716;27;20230;-65
2021/12/07 08:38:23;;;;;;;32.08;22.95;;;3.30;99.90;;;;;;5133269;27;20233;-65
2021/12/07 08:40:53;;;;;;;31.35;22.05;;;3.20;99.90;;;;;;5133446;27;20233;-65
2021/12/07 08:43:21;;;;;;;31.92;22.48;;;3.20;99.90;;;;;;5133308;27;20270;-65
2021/12/07 08:45:48;;;;;;;28.55;19.73;;;3.30;99.90;;;;;;5133560;27;20230;-65
2021/12/07 08:48:16;;;;;;;29.45;20.35;;;3.20;99.90;;;;;;5133205;27;20302;-65
2021/12/07 08:50:44;;;;;;;30.92;20.90;;;3.20;99.90;;;;;;5133457;27;20253;-65
2021/12/07 08:53:13;;;;;;;32.22;22.13;;;3.10;99.90;;;;;;5133007;27;20218;-65
2021/12/07 09:01:15;;;;;;;34.08;22.15;;;3.30;99.90;;;;;;5114854;27;20376;-65
2021/12/07 09:03:42;;;;;;;31.33;22.98;;;3.40;99.90;;;;;;5133578;27;20232;-65
2021/12/07 09:06:11;;;;;;;32.20;21.92;;;3.40;99.90;;;;;;5132875;27;20225;-65
2021/12/07 09:08:39;;;;;;;30.05;20.95;;;3.40;99.90;;;;;;5133530;27;20225;-65
2021/12/07 09:11:07;;;;;;;30.63;20.75;;;3.40;99.90;;;;;;5132831;27;20221;-65
2021/12/07 09:13:34;;;;;;;33.55;23.25;;;3.30;99.90;;;;;;5133397;27;20671;-65
2021/12/07 09:16:03;;;;;;;32.42;22.85;;;3.40;99.90;;;;;;5133241;27;20217;-64
2021/12/07 09:18:31;;;;;;;29.95;20.38;;;3.40;99.90;;;;;;5132943;27;20224;-65
2021/12/07 09:20:58;;;;;;;27.70;20.38;;;3.50;99.90;;;;;;5133137;27;20226;-65
2021/12/07 09:23:27;;;;;;;29.55;21.20;;;3.50;99.90;;;;;;5132856;27;20225;-65
2021/12/07 09:25:55;;;;;;;30.02;21.98;;;3.50;99.90;;;;;;5124300;27;20227;-65
2021/12/07 09:28:22;;;;;;;27.15;20.52;;;3.50;99.90;;;;;;5111375;27;20222;-65
2021/12/07 09:30:52;;;;;;;24.33;20.08;;;3.60;99.90;;;;;;5111752;27;20569;-65
2021/12/07 09:33:19;;;;;;;29.73;21.42;;;3.60;99.90;;;;;;5111411;27;20287;-65
2021/12/07 09:35:47;;;;;;;28.23;20.20;;;3.60;99.90;;;;;;5126314;27;20576;-65
2021/12/07 09:38:14;;;;;;;28.92;21.30;;;3.70;99.90;;;;;;5133191;27;20707;-65
2021/12/07 09:40:44;;;;;;;30.98;22.33;;;3.70;99.90;;;;;;5135576;27;20707;-65
2021/12/07 09:43:11;;;;;;;28.33;20.75;;;3.70;99.90;;;;;;5133826;27;20217;-65
2021/12/07 09:45:39;;;;;;;30.33;22.95;;;3.70;99.90;;;;;;5134274;27;20213;-65
2021/12/07 09:48:07;;;;;;;28.25;21.55;;;3.70;99.90;;;;;;5134340;27;20726;-65
2021/12/07 09:50:35;;;;;;;30.08;21.90;;;3.80;99.90;;;;;;5133573;27;20656;-66
2021/12/07 09:53:02;;;;;;;31.95;21.58;;;3.70;99.90;;;;;;5134117;27;20245;-65
2021/12/07 09:55:29;;;;;;;27.73;20.65;;;3.80;99.90;;;;;;5134412;27;20229;-66
2021/12/07 09:57:58;;;;;;;29.17;22.00;;;3.90;99.90;;;;;;5136575;27;20233;-66
2021/12/07 10:00:26;;;;;;;31.70;21.95;;;3.90;99.90;;;;;;5136201;27;20242;-65
2021/12/07 10:02:54;;;;;;;29.48;22.27;;;3.90;99.90;;;;;;5136775;27;20398;-65
2021/12/07 10:05:26;;;;;;;36.25;23.98;;;3.80;99.90;;;;;;5136070;27;20234;-65
2021/12/07 10:07:53;;;;;;;27.88;21.00;;;3.70;99.90;;;;;;5136505;27;20225;-65
2021/12/07 10:10:22;;;;;;;29.90;22.30;;;3.70;99.90;;;;;;5136196;27;20245;-65
2021/12/07 10:12:50;;;;;;;32.20;21.95;;;3.80;99.90;;;;;;5115739;27;20234;-65
2021/12/07 10:15:19;;;;;;;31.63;23.35;;;3.90;99.90;;;;;;5115377;27;20226;-65
2021/12/07 10:18:01;;;;;;;27.65;21.65;;;3.90;99.90;;;;;;5115872;27;20222;-65
2021/12/07 10:20:33;;;;;;;30.90;21.35;;;3.90;99.90;;;;;;5115249;27;20226;-65
2021/12/07 10:23:05;;;;;;;28.05;20.50;;;3.90;99.90;;;;;;5126464;27;20252;-66
2021/12/07 10:25:32;;;;;;;29.50;21.80;;;3.90;99.90;;;;;;5127057;27;20229;-65
2021/12/07 10:27:59;;;;;;;26.80;20.08;;;3.90;99.90;;;;;;5135960;27;20684;-66
2021/12/07 10:30:28;;;;;;;30.67;21.98;;;3.80;99.90;;;;;;5135460;27;20229;-65
2021/12/07 10:33:01;;;;;;;28.33;20.65;;;3.80;99.90;;;;;;5135788;27;20482;-65
2021/12/07 10:35:30;;;;;;;30.17;21.92;;;3.70;99.90;;;;;;5135247;27;20584;-65
2021/12/07 10:38:10;;;;;;;33.67;23.23;;;3.70;99.90;;;;;;5135943;27;20222;-66
2021/12/07 10:40:54;;;;;;;30.23;22.23;;;3.80;99.90;;;;;;5135265;27;21220;-65
2021/12/07 10:43:46;;;;;;;29.02;22.35;;;3.90;99.90;;;;;;5126943;27;20221;-65
2021/12/07 10:46:37;;;;;;;34.38;22.58;;;3.80;99.90;;;;;;5123772;27;20698;-65
2021/12/07 10:49:21;;;;;;;30.75;23.45;;;3.90;99.90;;;;;;5135319;27;20217;-64
2021/12/07 10:52:07;;;;;;;32.72;23.60;;;3.90;99.90;;;;;;5134884;27;20248;-65
2021/12/07 10:54:37;;;;;;;30.85;22.75;;;3.90;99.90;;;;;;5135035;27;20232;-65
2021/12/07 10:57:07;;;;;;;33.38;24.77;;;3.90;99.90;;;;;;5135322;27;20225;-65
2021/12/07 10:59:36;;;;;;;33.78;25.00;;;3.90;99.90;;;;;;5134901;27;20233;-65
2021/12/07 11:02:15;;;;;;;36.20;24.35;;;3.80;99.90;;;;;;5135181;27;20698;-65
2021/12/07 11:04:43;;;;;;;32.45;22.52;;;3.80;99.90;;;;;;5134876;27;20571;-65
2021/12/07 11:07:17;;;;;;;38.88;24.48;;;3.70;99.90;;;;;;5135250;27;20736;-65
2021/12/07 11:09:48;;;;;;;30.98;24.50;;;3.70;99.90;;;;;;5134671;27;20272;-65
2021/12/07 11:12:19;;;;;;;33.42;22.95;;;3.60;99.90;;;;;;5129088;27;20225;-65
2021/12/07 11:14:50;;;;;;;34.80;24.15;;;3.60;99.90;;;;;;5134492;27;20304;-65
2021/12/07 11:17:21;;;;;;;32.70;22.67;;;3.60;99.90;;;;;;5133582;27;20214;-65
2021/12/07 11:19:48;;;;;;;31.83;23.58;;;3.50;99.90;;;;;;5132442;27;20233;-65
2021/12/07 11:22:17;;;;;;;36.28;24.67;;;3.50;99.90;;;;;;5126319;27;20222;-65
2021/12/07 11:24:45;;;;;;;31.55;22.88;;;3.60;99.90;;;;;;5134448;27;20231;-64
2021/12/07 11:30:00;;;;;;;36.50;23.08;;;3.80;99.90;;;;;;5123135;27;20229;-65
2021/12/07 11:32:29;;;;;;;34.58;23.92;;;3.90;99.90;;;;;;5133784;27;20214;-65
2021/12/07 11:35:10;;;;;;;39.00;24.60;;;3.90;99.90;;;;;;5134190;27;20232;-65
2021/12/07 11:37:38;;;;;;;35.67;25.10;;;3.90;99.90;;;;;;5122401;27;20220;-65
2021/12/07 11:40:09;;;;;;;37.05;23.92;;;4.00;99.90;;;;;;5134374;27;20221;-65
2021/12/07 11:42:38;;;;;;;31.63;23.05;;;4.00;99.90;;;;;;5133957;27;20214;-65
2021/12/07 11:45:09;;;;;;;32.88;23.80;;;4.10;99.90;;;;;;5134074;27;20222;-65
2021/12/07 11:47:40;;;;;;;32.13;22.92;;;4.00;99.90;;;;;;5134093;27;20217;-65
2021/12/07 11:50:31;;;;;;;34.75;24.70;;;4.10;99.90;;;;;;5134036;27;20257;-65
2021/12/07 11:53:02;;;;;;;35.10;26.25;;;4.20;99.90;;;;;;5129130;27;20222;-65
2021/12/07 11:55:31;;;;;;;34.53;26.42;;;4.20;99.90;;;;;;5134077;27;20214;-65
2021/12/07 11:57:59;;;;;;;33.72;24.30;;;4.20;99.90;;;;;;5132428;27;20218;-65
2021/12/07 12:00:34;;;;;;;29.30;22.63;;;4.20;99.90;;;;;;5133804;27;20218;-65
2021/12/07 12:03:03;;;;;;;33.25;24.58;;;4.40;99.90;;;;;;5133749;27;20244;-65
2021/12/07 12:05:30;;;;;;;31.75;22.52;;;4.30;99.90;;;;;;5134061;27;20229;-65
2021/12/07 12:07:57;;;;;;;36.80;23.05;;;4.40;99.90;;;;;;5133805;27;20236;-65
2021/12/07 12:10:25;;;;;;;36.78;26.70;;;4.50;99.90;;;;;;5133955;27;20222;-65
2021/12/07 12:13:12;;;;;;;38.85;27.10;;;4.40;99.90;;;;;;5133339;27;20667;-65
2021/12/07 12:16:08;;;;;;;36.50;24.80;;;4.20;99.90;;;;;;5133773;27;20233;-65
2021/12/07 12:18:49;;;;;;;37.42;25.35;;;4.20;99.90;;;;;;5123693;27;20230;-65
2021/12/07 12:21:27;;;;;;;37.20;25.52;;;4.10;99.90;;;;;;5131471;27;20244;-65
2021/12/07 12:24:06;;;;;;;36.35;24.60;;;4.10;99.90;;;;;;5134017;27;20224;-64
2021/12/07 12:26:35;;;;;;;38.78;25.45;;;4.20;99.90;;;;;;5133830;27;20214;-64
2021/12/07 12:29:02;;;;;;;40.58;25.42;;;4.20;99.90;;;;;;5132861;27;20254;-64
2021/12/07 12:31:49;;;;;;;37.05;24.92;;;4.20;99.90;;;;;;5133729;27;20222;-64
2021/12/07 12:34:20;;;;;;;39.15;27.40;;;4.30;99.90;;;;;;5133586;27;20218;-64
2021/12/07 12:36:57;;;;;;;35.85;23.95;;;4.30;99.90;;;;;;5133346;27;20672;-64
2021/12/07 12:39:52;;;;;;;37.42;25.40;;;4.20;99.90;;;;;;5120781;27;20230;-64
2021/12/07 12:42:26;;;;;;;38.10;26.92;;;4.10;99.90;;;;;;5124267;27;20232;-64
2021/12/07 12:44:59;;;;;;;36.05;25.10;;;4.20;99.90;;;;;;5133018;27;20651;-65
2021/12/07 12:47:28;;;;;;;34.03;25.08;;;4.20;99.90;;;;;;5125434;27;20226;-64
2021/12/07 12:50:09;;;;;;;39.97;25.58;;;4.10;99.90;;;;;;5132459;27;20225;-64
2021/12/07 12:52:43;;;;;;;37.13;26.65;;;4.10;99.90;;;;;;5131700;27;20233;-64
2021/12/07 12:55:32;;;;;;;41.78;27.10;;;4.00;99.90;;;;;;5123835;27;20228;-64
2021/12/07 12:58:00;;;;;;;34.88;24.23;;;4.00;99.90;;;;;;5128365;27;20210;-64
2021/12/07 13:01:17;;;;;;;31.70;23.23;;;4.00;99.90;;;;;;5133489;27;20230;-64
2021/12/07 13:03:53;;;;;;;36.25;25.00;;;4.00;99.90;;;;;;5062138;28;20232;-64
2021/12/07 13:06:40;;;;;;;32.50;24.73;;;3.90;99.90;;;;;;5113004;27;20226;-64
2021/12/07 13:09:10;;;;;;;41.92;27.70;;;4.00;99.90;;;;;;5131385;27;20246;-64
2021/12/07 13:11:39;;;;;;;39.70;27.63;;;4.00;99.90;;;;;;5130911;27;20229;-65
2021/12/07 13:14:11;;;;;;;37.55;25.55;;;4.10;99.90;;;;;;5134379;27;20230;-65
2021/12/07 13:16:39;;;;;;;38.78;24.92;;;4.10;99.90;;;;;;5134953;27;20586;-64
2021/12/07 13:19:08;;;;;;;39.15;25.27;;;4.10;99.90;;;;;;5134361;27;20301;-65
2021/12/07 13:21:40;;;;;;;35.83;25.63;;;4.10;99.90;;;;;;5134685;27;20648;-65
2021/12/07 13:24:09;;;;;;;39.22;28.50;;;4.00;99.90;;;;;;5137356;27;20671;-65
2021/12/07 13:26:38;;;;;;;34.60;23.30;;;3.90;99.90;;;;;;5137006;27;20680;-64
2021/12/07 13:29:08;;;;;;;41.38;27.70;;;3.90;99.90;;;;;;5136711;27;20240;-65
2021/12/07 13:31:43;;;;;;;39.15;26.67;;;3.90;99.90;;;;;;5136754;27;20225;-64
2021/12/07 13:34:12;;;;;;;40.85;25.85;;;3.90;99.90;;;;;;5135416;27;20625;-65
2021/12/07 13:36:46;;;;;;;50.65;34.72;;;3.90;99.90;;;;;;5133585;27;20552;-65
2021/12/07 13:39:35;;;;;;;38.97;29.10;;;3.90;99.90;;;;;;5123930;27;20229;-65
2021/12/07 13:42:05;;;;;;;39.78;28.48;;;4.00;99.90;;;;;;5128164;27;20221;-64
2021/12/07 13:44:35;;;;;;;36.17;26.63;;;3.90;99.90;;;;;;5136752;27;20308;-65
2021/12/07 13:47:05;;;;;;;41.88;27.50;;;4.10;99.90;;;;;;5129733;27;20221;-65
2021/12/07 13:49:35;;;;;;;42.22;27.23;;;4.20;99.90;;;;;;5134796;27;20225;-66
2021/12/07 13:52:09;;;;;;;43.75;28.13;;;4.30;99.90;;;;;;5134068;27;20237;-65
2021/12/07 13:54:42;;;;;;;35.50;26.35;;;4.20;99.90;;;;;;5134734;27;20245;-65
2021/12/07 13:57:15;;;;;;;37.05;27.38;;;4.10;99.90;;;;;;5134483;27;20530;-66
2021/12/07 13:59:42;;;;;;;40.03;28.95;;;4.10;99.90;;;;;;5134213;27;20226;-65
2021/12/07 14:02:09;;;;;;;87.65;51.22;;;4.10;99.90;;;;;;5132429;27;20225;-65
2021/12/07 14:04:36;;;;;;;54.05;34.17;;;4.10;99.90;;;;;;5131699;27;20214;-65
2021/12/07 14:07:04;;;;;;;49.40;29.83;;;4.00;99.90;;;;;;5135915;27;20222;-65
2021/12/07 14:09:32;;;;;;;36.92;26.35;;;4.10;99.90;;;;;;5136522;27;20264;-64